sensor_id;sensor_type;location;lat;lon;timestamp;P1;durP1;ratioP1;P2;durP2;ratioP2
25381;SDS011;16307;42.896;20.874;2024-01-15T00:01:36;137.75;;;61.22;;
25381;SDS011;16307;42.896;20.874;2024-01-15T00:04:22;148.98;;;64.85;;
25381;SDS011;16307;42.896;20.874;2024-01-15T00:07:08;154.32;;;65.55;;
25381;SDS011;16307;42.896;20.874;2024-01-15T00:09:55;155.75;;;69.28;;
25381;SDS011;16307;42.896;20.874;2024-01-15T00:12:41;166.90;;;73.07;;
25381;SDS011;16307;42.896;20.874;2024-01-15T00:15:27;165.23;;;73.13;;
25381;SDS011;16307;42.896;20.874;2024-01-15T00:18:14;148.23;;;61.10;;
25381;SDS011;16307;42.896;20.874;2024-01-15T00:21:00;129.38;;;56.75;;
25381;SDS011;16307;42.896;20.874;2024-01-15T00:23:46;112.00;;;50.00;;
25381;SDS011;16307;42.896;20.874;2024-01-15T00:26:33;107.45;;;50.72;;
25381;SDS011;16307;42.896;20.874;2024-01-15T00:29:19;108.45;;;49.38;;
25381;SDS011;16307;42.896;20.874;2024-01-15T00:32:05;109.18;;;48.03;;
25381;SDS011;16307;42.896;20.874;2024-01-15T00:34:51;103.95;;;49.45;;
25381;SDS011;16307;42.896;20.874;2024-01-15T00:37:38;109.05;;;50.08;;
25381;SDS011;16307;42.896;20.874;2024-01-15T00:40:25;116.72;;;52.67;;
25381;SDS011;16307;42.896;20.874;2024-01-15T00:43:11;114.88;;;49.53;;
25381;SDS011;16307;42.896;20.874;2024-01-15T00:45:57;100.40;;;43.47;;
25381;SDS011;16307;42.896;20.874;2024-01-15T00:48:43;80.13;;;37.60;;
25381;SDS011;16307;42.896;20.874;2024-01-15T00:51:29;84.55;;;38.35;;
25381;SDS011;16307;42.896;20.874;2024-01-15T00:54:15;80.28;;;37.33;;
25381;SDS011;16307;42.896;20.874;2024-01-15T00:57:01;74.63;;;36.75;;
25381;SDS011;16307;42.896;20.874;2024-01-15T00:59:47;86.75;;;40.03;;
25381;SDS011;16307;42.896;20.874;2024-01-15T01:02:34;87.07;;;41.75;;
25381;SDS011;16307;42.896;20.874;2024-01-15T01:05:20;82.35;;;38.65;;
25381;SDS011;16307;42.896;20.874;2024-01-15T01:08:06;83.00;;;39.25;;
25381;SDS011;16307;42.896;20.874;2024-01-15T01:10:52;90.90;;;38.42;;
25381;SDS011;16307;42.896;20.874;2024-01-15T01:13:38;94.78;;;39.92;;
25381;SDS011;16307;42.896;20.874;2024-01-15T01:16:24;81.88;;;38.13;;
25381;SDS011;16307;42.896;20.874;2024-01-15T01:19:10;81.63;;;37.05;;
25381;SDS011;16307;42.896;20.874;2024-01-15T01:21:57;76.03;;;35.72;;
25381;SDS011;16307;42.896;20.874;2024-01-15T01:24:43;81.85;;;35.47;;
25381;SDS011;16307;42.896;20.874;2024-01-15T01:27:28;80.05;;;36.53;;
25381;SDS011;16307;42.896;20.874;2024-01-15T01:30:14;81.70;;;37.28;;
25381;SDS011;16307;42.896;20.874;2024-01-15T01:33:01;78.20;;;35.08;;
25381;SDS011;16307;42.896;20.874;2024-01-15T01:35:47;77.43;;;36.33;;
25381;SDS011;16307;42.896;20.874;2024-01-15T01:38:33;87.05;;;39.25;;
25381;SDS011;16307;42.896;20.874;2024-01-15T01:41:19;80.28;;;37.47;;
25381;SDS011;16307;42.896;20.874;2024-01-15T01:44:05;83.82;;;36.67;;
25381;SDS011;16307;42.896;20.874;2024-01-15T01:46:51;82.82;;;37.58;;
25381;SDS011;16307;42.896;20.874;2024-01-15T01:49:37;75.43;;;36.75;;
25381;SDS011;16307;42.896;20.874;2024-01-15T01:52:24;79.68;;;36.40;;
25381;SDS011;16307;42.896;20.874;2024-01-15T01:55:10;70.63;;;34.10;;
25381;SDS011;16307;42.896;20.874;2024-01-15T01:57:57;74.80;;;33.17;;
25381;SDS011;16307;42.896;20.874;2024-01-15T02:00:43;74.47;;;33.13;;
25381;SDS011;16307;42.896;20.874;2024-01-15T02:03:30;67.05;;;31.00;;
25381;SDS011;16307;42.896;20.874;2024-01-15T02:06:16;74.55;;;33.65;;
25381;SDS011;16307;42.896;20.874;2024-01-15T02:09:03;69.07;;;33.13;;
25381;SDS011;16307;42.896;20.874;2024-01-15T02:11:50;73.65;;;32.60;;
25381;SDS011;16307;42.896;20.874;2024-01-15T02:14:36;66.93;;;32.03;;
25381;SDS011;16307;42.896;20.874;2024-01-15T02:17:23;65.10;;;30.50;;
25381;SDS011;16307;42.896;20.874;2024-01-15T02:20:09;62.42;;;30.27;;
25381;SDS011;16307;42.896;20.874;2024-01-15T02:25:54;63.72;;;29.63;;
25381;SDS011;16307;42.896;20.874;2024-01-15T02:28:40;61.47;;;29.00;;
25381;SDS011;16307;42.896;20.874;2024-01-15T02:31:27;61.17;;;28.83;;
25381;SDS011;16307;42.896;20.874;2024-01-15T02:34:13;61.92;;;30.13;;
25381;SDS011;16307;42.896;20.874;2024-01-15T02:36:59;61.58;;;29.60;;
25381;SDS011;16307;42.896;20.874;2024-01-15T02:39:46;65.72;;;30.30;;
25381;SDS011;16307;42.896;20.874;2024-01-15T02:42:32;64.38;;;30.40;;
25381;SDS011;16307;42.896;20.874;2024-01-15T02:45:18;59.83;;;28.45;;
25381;SDS011;16307;42.896;20.874;2024-01-15T02:48:05;65.28;;;30.90;;
25381;SDS011;16307;42.896;20.874;2024-01-15T02:50:52;72.00;;;31.27;;
25381;SDS011;16307;42.896;20.874;2024-01-15T02:53:38;66.82;;;31.73;;
25381;SDS011;16307;42.896;20.874;2024-01-15T02:56:24;61.10;;;30.50;;
25381;SDS011;16307;42.896;20.874;2024-01-15T02:59:10;65.05;;;30.55;;
25381;SDS011;16307;42.896;20.874;2024-01-15T03:01:56;74.65;;;32.13;;
25381;SDS011;16307;42.896;20.874;2024-01-15T03:04:43;73.03;;;35.13;;
25381;SDS011;16307;42.896;20.874;2024-01-15T03:07:29;69.22;;;33.13;;
25381;SDS011;16307;42.896;20.874;2024-01-15T03:10:15;73.00;;;32.10;;
25381;SDS011;16307;42.896;20.874;2024-01-15T03:13:02;68.93;;;33.15;;
25381;SDS011;16307;42.896;20.874;2024-01-15T03:15:48;72.65;;;32.83;;
25381;SDS011;16307;42.896;20.874;2024-01-15T03:18:35;73.15;;;33.75;;
25381;SDS011;16307;42.896;20.874;2024-01-15T03:21:21;69.53;;;33.05;;
25381;SDS011;16307;42.896;20.874;2024-01-15T03:24:07;83.40;;;37.83;;
25381;SDS011;16307;42.896;20.874;2024-01-15T03:26:53;83.45;;;37.03;;
25381;SDS011;16307;42.896;20.874;2024-01-15T03:29:39;83.45;;;37.35;;
25381;SDS011;16307;42.896;20.874;2024-01-15T03:32:26;74.30;;;35.97;;
25381;SDS011;16307;42.896;20.874;2024-01-15T03:35:12;78.45;;;35.78;;
25381;SDS011;16307;42.896;20.874;2024-01-15T03:37:58;88.05;;;40.88;;
25381;SDS011;16307;42.896;20.874;2024-01-15T03:40:43;90.20;;;42.58;;
25381;SDS011;16307;42.896;20.874;2024-01-15T03:43:30;94.88;;;42.67;;
25381;SDS011;16307;42.896;20.874;2024-01-15T03:46:16;93.15;;;43.45;;
25381;SDS011;16307;42.896;20.874;2024-01-15T03:49:02;94.25;;;43.28;;
25381;SDS011;16307;42.896;20.874;2024-01-15T03:51:48;90.03;;;42.65;;
25381;SDS011;16307;42.896;20.874;2024-01-15T03:54:34;98.65;;;43.03;;
25381;SDS011;16307;42.896;20.874;2024-01-15T03:57:21;101.97;;;45.67;;
25381;SDS011;16307;42.896;20.874;2024-01-15T04:00:07;95.80;;;44.85;;
25381;SDS011;16307;42.896;20.874;2024-01-15T04:02:53;100.97;;;46.63;;
25381;SDS011;16307;42.896;20.874;2024-01-15T04:05:39;98.45;;;46.38;;
25381;SDS011;16307;42.896;20.874;2024-01-15T04:08:25;95.88;;;46.08;;
25381;SDS011;16307;42.896;20.874;2024-01-15T04:11:11;93.88;;;46.53;;
25381;SDS011;16307;42.896;20.874;2024-01-15T04:13:57;102.72;;;45.20;;
25381;SDS011;16307;42.896;20.874;2024-01-15T04:16:43;108.35;;;47.72;;
25381;SDS011;16307;42.896;20.874;2024-01-15T04:19:29;103.88;;;46.58;;
25381;SDS011;16307;42.896;20.874;2024-01-15T04:22:15;98.95;;;44.83;;
25381;SDS011;16307;42.896;20.874;2024-01-15T04:25:01;96.75;;;45.40;;
25381;SDS011;16307;42.896;20.874;2024-01-15T04:27:48;95.32;;;44.35;;
25381;SDS011;16307;42.896;20.874;2024-01-15T04:30:34;95.60;;;44.75;;
25381;SDS011;16307;42.896;20.874;2024-01-15T04:33:20;100.95;;;44.50;;
25381;SDS011;16307;42.896;20.874;2024-01-15T04:36:06;90.85;;;42.17;;
25381;SDS011;16307;42.896;20.874;2024-01-15T04:38:52;88.97;;;42.78;;
25381;SDS011;16307;42.896;20.874;2024-01-15T04:41:38;93.13;;;41.63;;
25381;SDS011;16307;42.896;20.874;2024-01-15T04:44:24;89.53;;;41.42;;
25381;SDS011;16307;42.896;20.874;2024-01-15T04:47:10;96.20;;;41.50;;
25381;SDS011;16307;42.896;20.874;2024-01-15T04:49:56;86.25;;;41.30;;
25381;SDS011;16307;42.896;20.874;2024-01-15T04:52:42;93.55;;;42.83;;
25381;SDS011;16307;42.896;20.874;2024-01-15T04:55:29;88.10;;;41.88;;
25381;SDS011;16307;42.896;20.874;2024-01-15T04:58:15;93.32;;;42.60;;
25381;SDS011;16307;42.896;20.874;2024-01-15T05:01:01;91.40;;;41.97;;
25381;SDS011;16307;42.896;20.874;2024-01-15T05:03:47;88.03;;;41.35;;
25381;SDS011;16307;42.896;20.874;2024-01-15T05:06:33;87.78;;;40.75;;
25381;SDS011;16307;42.896;20.874;2024-01-15T05:09:19;89.30;;;40.58;;
25381;SDS011;16307;42.896;20.874;2024-01-15T05:12:06;87.18;;;42.30;;
25381;SDS011;16307;42.896;20.874;2024-01-15T05:14:52;84.88;;;39.42;;
25381;SDS011;16307;42.896;20.874;2024-01-15T05:17:38;100.57;;;45.80;;
25381;SDS011;16307;42.896;20.874;2024-01-15T05:20:24;95.95;;;45.38;;
25381;SDS011;16307;42.896;20.874;2024-01-15T05:23:10;108.25;;;50.72;;
25381;SDS011;16307;42.896;20.874;2024-01-15T05:25:57;118.13;;;54.88;;
25381;SDS011;16307;42.896;20.874;2024-01-15T05:28:43;126.35;;;59.55;;
25381;SDS011;16307;42.896;20.874;2024-01-15T05:31:29;139.77;;;62.88;;
25381;SDS011;16307;42.896;20.874;2024-01-15T05:34:15;155.00;;;69.93;;
25381;SDS011;16307;42.896;20.874;2024-01-15T05:37:01;154.95;;;67.28;;
25381;SDS011;16307;42.896;20.874;2024-01-15T05:39:47;144.45;;;67.25;;
25381;SDS011;16307;42.896;20.874;2024-01-15T05:42:33;141.38;;;62.47;;
25381;SDS011;16307;42.896;20.874;2024-01-15T05:45:19;131.38;;;58.38;;
25381;SDS011;16307;42.896;20.874;2024-01-15T05:48:05;124.90;;;58.00;;
25381;SDS011;16307;42.896;20.874;2024-01-15T05:50:51;133.05;;;60.70;;
25381;SDS011;16307;42.896;20.874;2024-01-15T05:53:37;138.25;;;61.20;;
25381;SDS011;16307;42.896;20.874;2024-01-15T05:56:25;148.32;;;65.72;;
25381;SDS011;16307;42.896;20.874;2024-01-15T05:59:11;133.13;;;60.35;;
25381;SDS011;16307;42.896;20.874;2024-01-15T06:02:00;141.38;;;62.05;;
25381;SDS011;16307;42.896;20.874;2024-01-15T06:04:46;135.30;;;59.28;;
25381;SDS011;16307;42.896;20.874;2024-01-15T06:07:35;118.00;;;54.83;;
25381;SDS011;16307;42.896;20.874;2024-01-15T06:10:22;110.05;;;49.60;;
25381;SDS011;16307;42.896;20.874;2024-01-15T06:13:08;98.25;;;45.15;;
25381;SDS011;16307;42.896;20.874;2024-01-15T06:15:54;91.55;;;44.22;;
25381;SDS011;16307;42.896;20.874;2024-01-15T06:18:40;91.93;;;43.65;;
25381;SDS011;16307;42.896;20.874;2024-01-15T06:21:27;95.53;;;45.13;;
25381;SDS011;16307;42.896;20.874;2024-01-15T06:24:13;97.22;;;44.88;;
25381;SDS011;16307;42.896;20.874;2024-01-15T06:27:00;113.18;;;50.83;;
25381;SDS011;16307;42.896;20.874;2024-01-15T06:29:46;112.78;;;51.63;;
25381;SDS011;16307;42.896;20.874;2024-01-15T06:32:36;104.53;;;50.75;;
25381;SDS011;16307;42.896;20.874;2024-01-15T06:35:22;111.82;;;54.03;;
25381;SDS011;16307;42.896;20.874;2024-01-15T06:38:08;107.28;;;50.45;;
25381;SDS011;16307;42.896;20.874;2024-01-15T06:40:54;101.72;;;51.60;;
25381;SDS011;16307;42.896;20.874;2024-01-15T06:43:40;118.82;;;55.40;;
25381;SDS011;16307;42.896;20.874;2024-01-15T06:46:26;144.90;;;62.95;;
25381;SDS011;16307;42.896;20.874;2024-01-15T06:49:13;127.15;;;57.10;;
25381;SDS011;16307;42.896;20.874;2024-01-15T06:51:59;121.65;;;51.58;;
25381;SDS011;16307;42.896;20.874;2024-01-15T06:54:45;118.70;;;51.70;;
25381;SDS011;16307;42.896;20.874;2024-01-15T06:57:31;99.25;;;46.30;;
25381;SDS011;16307;42.896;20.874;2024-01-15T07:00:17;107.45;;;47.28;;
25381;SDS011;16307;42.896;20.874;2024-01-15T07:03:05;99.65;;;46.65;;
25381;SDS011;16307;42.896;20.874;2024-01-15T07:05:52;93.03;;;44.83;;
25381;SDS011;16307;42.896;20.874;2024-01-15T07:08:39;94.65;;;44.75;;
25381;SDS011;16307;42.896;20.874;2024-01-15T07:11:26;106.80;;;44.97;;
25381;SDS011;16307;42.896;20.874;2024-01-15T07:14:12;101.97;;;44.97;;
25381;SDS011;16307;42.896;20.874;2024-01-15T07:16:58;95.20;;;41.83;;
25381;SDS011;16307;42.896;20.874;2024-01-15T07:19:44;93.90;;;42.00;;
25381;SDS011;16307;42.896;20.874;2024-01-15T07:22:30;87.05;;;41.75;;
25381;SDS011;16307;42.896;20.874;2024-01-15T07:25:16;90.18;;;42.42;;
25381;SDS011;16307;42.896;20.874;2024-01-15T07:28:02;92.18;;;41.67;;
25381;SDS011;16307;42.896;20.874;2024-01-15T07:30:49;93.82;;;43.88;;
25381;SDS011;16307;42.896;20.874;2024-01-15T07:33:35;89.05;;;42.97;;
25381;SDS011;16307;42.896;20.874;2024-01-15T07:36:21;103.38;;;46.22;;
25381;SDS011;16307;42.896;20.874;2024-01-15T07:39:07;93.47;;;44.78;;
25381;SDS011;16307;42.896;20.874;2024-01-15T07:41:53;101.47;;;47.83;;
25381;SDS011;16307;42.896;20.874;2024-01-15T07:44:39;101.10;;;46.90;;
25381;SDS011;16307;42.896;20.874;2024-01-15T07:47:25;104.35;;;49.03;;
25381;SDS011;16307;42.896;20.874;2024-01-15T07:50:11;102.35;;;47.70;;
25381;SDS011;16307;42.896;20.874;2024-01-15T07:52:57;100.20;;;48.42;;
25381;SDS011;16307;42.896;20.874;2024-01-15T07:55:43;100.20;;;48.25;;
25381;SDS011;16307;42.896;20.874;2024-01-15T07:58:31;103.20;;;46.42;;
25381;SDS011;16307;42.896;20.874;2024-01-15T08:01:18;98.80;;;46.90;;
25381;SDS011;16307;42.896;20.874;2024-01-15T08:04:04;102.00;;;47.05;;
25381;SDS011;16307;42.896;20.874;2024-01-15T08:06:50;104.00;;;47.67;;
25381;SDS011;16307;42.896;20.874;2024-01-15T08:09:37;100.57;;;47.60;;
25381;SDS011;16307;42.896;20.874;2024-01-15T08:12:24;106.05;;;47.63;;
25381;SDS011;16307;42.896;20.874;2024-01-15T08:15:10;101.68;;;49.13;;
25381;SDS011;16307;42.896;20.874;2024-01-15T08:17:56;113.53;;;50.17;;
25381;SDS011;16307;42.896;20.874;2024-01-15T08:20:42;114.25;;;51.58;;
25381;SDS011;16307;42.896;20.874;2024-01-15T08:23:28;109.85;;;53.05;;
25381;SDS011;16307;42.896;20.874;2024-01-15T08:26:17;116.28;;;54.22;;
25381;SDS011;16307;42.896;20.874;2024-01-15T08:29:03;114.15;;;51.75;;
25381;SDS011;16307;42.896;20.874;2024-01-15T08:31:49;118.25;;;53.42;;
25381;SDS011;16307;42.896;20.874;2024-01-15T08:34:36;111.55;;;49.58;;
25381;SDS011;16307;42.896;20.874;2024-01-15T08:37:22;94.57;;;45.35;;
25381;SDS011;16307;42.896;20.874;2024-01-15T08:40:08;98.43;;;44.45;;
25381;SDS011;16307;42.896;20.874;2024-01-15T08:42:55;98.18;;;43.45;;
25381;SDS011;16307;42.896;20.874;2024-01-15T08:45:41;91.93;;;40.65;;
25381;SDS011;16307;42.896;20.874;2024-01-15T08:48:27;84.57;;;41.63;;
25381;SDS011;16307;42.896;20.874;2024-01-15T08:51:13;88.95;;;44.58;;
25381;SDS011;16307;42.896;20.874;2024-01-15T08:53:59;90.40;;;41.97;;
25381;SDS011;16307;42.896;20.874;2024-01-15T08:56:45;96.05;;;45.58;;
25381;SDS011;16307;42.896;20.874;2024-01-15T08:59:31;92.45;;;43.63;;
25381;SDS011;16307;42.896;20.874;2024-01-15T09:02:18;123.60;;;49.30;;
25381;SDS011;16307;42.896;20.874;2024-01-15T09:05:04;102.68;;;45.85;;
25381;SDS011;16307;42.896;20.874;2024-01-15T09:07:50;109.60;;;49.15;;
25381;SDS011;16307;42.896;20.874;2024-01-15T09:10:38;104.57;;;45.88;;
25381;SDS011;16307;42.896;20.874;2024-01-15T09:13:24;100.22;;;45.33;;
25381;SDS011;16307;42.896;20.874;2024-01-15T09:16:10;86.55;;;39.80;;
25381;SDS011;16307;42.896;20.874;2024-01-15T09:18:56;100.93;;;44.28;;
25381;SDS011;16307;42.896;20.874;2024-01-15T09:21:43;87.63;;;38.85;;
25381;SDS011;16307;42.896;20.874;2024-01-15T09:24:30;85.47;;;38.83;;
25381;SDS011;16307;42.896;20.874;2024-01-15T09:27:16;87.72;;;38.33;;
25381;SDS011;16307;42.896;20.874;2024-01-15T09:30:02;83.35;;;37.13;;
25381;SDS011;16307;42.896;20.874;2024-01-15T09:32:49;79.38;;;37.40;;
25381;SDS011;16307;42.896;20.874;2024-01-15T09:35:35;80.38;;;36.42;;
25381;SDS011;16307;42.896;20.874;2024-01-15T09:38:21;67.75;;;33.42;;
25381;SDS011;16307;42.896;20.874;2024-01-15T09:41:07;72.78;;;33.97;;
25381;SDS011;16307;42.896;20.874;2024-01-15T09:43:53;61.67;;;29.70;;
25381;SDS011;16307;42.896;20.874;2024-01-15T09:46:39;64.50;;;30.42;;
25381;SDS011;16307;42.896;20.874;2024-01-15T09:49:26;71.20;;;30.52;;
25381;SDS011;16307;42.896;20.874;2024-01-15T09:52:13;68.40;;;29.70;;
25381;SDS011;16307;42.896;20.874;2024-01-15T09:55:01;73.30;;;32.30;;
25381;SDS011;16307;42.896;20.874;2024-01-15T09:57:51;77.50;;;35.20;;
25381;SDS011;16307;42.896;20.874;2024-01-15T10:00:38;73.97;;;34.22;;
25381;SDS011;16307;42.896;20.874;2024-01-15T10:03:27;64.03;;;30.70;;
25381;SDS011;16307;42.896;20.874;2024-01-15T10:06:17;68.18;;;33.20;;
25381;SDS011;16307;42.896;20.874;2024-01-15T10:09:07;70.65;;;31.40;;
25381;SDS011;16307;42.896;20.874;2024-01-15T10:11:53;74.50;;;33.72;;
25381;SDS011;16307;42.896;20.874;2024-01-15T10:14:40;73.30;;;34.40;;
25381;SDS011;16307;42.896;20.874;2024-01-15T10:17:26;72.82;;;31.90;;
25381;SDS011;16307;42.896;20.874;2024-01-15T10:20:14;75.90;;;34.53;;
25381;SDS011;16307;42.896;20.874;2024-01-15T10:23:00;80.30;;;34.53;;
25381;SDS011;16307;42.896;20.874;2024-01-15T10:25:46;71.22;;;32.80;;
25381;SDS011;16307;42.896;20.874;2024-01-15T10:28:32;77.65;;;33.97;;
25381;SDS011;16307;42.896;20.874;2024-01-15T10:31:18;75.63;;;34.72;;
25381;SDS011;16307;42.896;20.874;2024-01-15T10:34:11;71.57;;;34.03;;
25381;SDS011;16307;42.896;20.874;2024-01-15T10:37:01;93.70;;;39.30;;
25381;SDS011;16307;42.896;20.874;2024-01-15T10:39:48;90.85;;;37.97;;
25381;SDS011;16307;42.896;20.874;2024-01-15T10:42:34;75.75;;;35.20;;
25381;SDS011;16307;42.896;20.874;2024-01-15T10:45:20;79.25;;;33.53;;
25381;SDS011;16307;42.896;20.874;2024-01-15T10:48:06;75.60;;;34.08;;
25381;SDS011;16307;42.896;20.874;2024-01-15T10:50:54;99.70;;;40.22;;
25381;SDS011;16307;42.896;20.874;2024-01-15T10:53:40;88.88;;;37.60;;
25381;SDS011;16307;42.896;20.874;2024-01-15T10:56:27;84.55;;;37.80;;
25381;SDS011;16307;42.896;20.874;2024-01-15T10:59:13;89.35;;;39.75;;
25381;SDS011;16307;42.896;20.874;2024-01-15T11:02:00;82.07;;;36.08;;
25381;SDS011;16307;42.896;20.874;2024-01-15T11:04:46;92.82;;;39.65;;
25381;SDS011;16307;42.896;20.874;2024-01-15T11:07:33;87.75;;;41.25;;
25381;SDS011;16307;42.896;20.874;2024-01-15T11:10:38;88.93;;;40.13;;
25381;SDS011;16307;42.896;20.874;2024-01-15T11:16:17;90.00;;;41.38;;
25381;SDS011;16307;42.896;20.874;2024-01-15T11:19:04;91.60;;;43.35;;
25381;SDS011;16307;42.896;20.874;2024-01-15T11:21:52;94.70;;;42.92;;
25381;SDS011;16307;42.896;20.874;2024-01-15T11:24:39;82.63;;;37.38;;
25381;SDS011;16307;42.896;20.874;2024-01-15T11:27:42;83.82;;;37.97;;
25381;SDS011;16307;42.896;20.874;2024-01-15T11:30:33;90.95;;;42.30;;
25381;SDS011;16307;42.896;20.874;2024-01-15T11:33:49;87.18;;;39.67;;
25381;SDS011;16307;42.896;20.874;2024-01-15T11:39:39;121.85;;;52.63;;
25381;SDS011;16307;42.896;20.874;2024-01-15T12:26:58;160.20;;;71.95;;
25381;SDS011;16307;42.896;20.874;2024-01-15T12:29:45;136.70;;;59.42;;
25381;SDS011;16307;42.896;20.874;2024-01-15T12:32:31;131.85;;;57.50;;
25381;SDS011;16307;42.896;20.874;2024-01-15T12:35:17;118.97;;;54.90;;
25381;SDS011;16307;42.896;20.874;2024-01-15T12:38:03;119.20;;;55.83;;
25381;SDS011;16307;42.896;20.874;2024-01-15T12:40:49;128.05;;;54.08;;
25381;SDS011;16307;42.896;20.874;2024-01-15T12:43:36;121.82;;;53.60;;
25381;SDS011;16307;42.896;20.874;2024-01-15T12:46:23;114.63;;;46.65;;
25381;SDS011;16307;42.896;20.874;2024-01-15T12:49:09;118.35;;;50.55;;
25381;SDS011;16307;42.896;20.874;2024-01-15T12:51:58;123.50;;;53.17;;
25381;SDS011;16307;42.896;20.874;2024-01-15T12:54:45;137.48;;;55.30;;
25381;SDS011;16307;42.896;20.874;2024-01-15T12:57:31;124.75;;;54.05;;
25381;SDS011;16307;42.896;20.874;2024-01-15T13:00:22;125.70;;;51.85;;
25381;SDS011;16307;42.896;20.874;2024-01-15T13:03:08;137.20;;;55.45;;
25381;SDS011;16307;42.896;20.874;2024-01-15T13:05:54;123.70;;;58.38;;
25381;SDS011;16307;42.896;20.874;2024-01-15T13:08:40;135.55;;;61.58;;
25381;SDS011;16307;42.896;20.874;2024-01-15T13:11:27;147.02;;;60.55;;
25381;SDS011;16307;42.896;20.874;2024-01-15T13:14:13;149.85;;;63.63;;
25381;SDS011;16307;42.896;20.874;2024-01-15T13:16:59;129.38;;;57.90;;
25381;SDS011;16307;42.896;20.874;2024-01-15T13:19:46;136.70;;;63.95;;
25381;SDS011;16307;42.896;20.874;2024-01-15T13:22:32;138.88;;;60.72;;
25381;SDS011;16307;42.896;20.874;2024-01-15T13:25:19;128.35;;;54.85;;
25381;SDS011;16307;42.896;20.874;2024-01-15T13:28:06;124.50;;;57.60;;
25381;SDS011;16307;42.896;20.874;2024-01-15T13:30:54;117.38;;;51.25;;
25381;SDS011;16307;42.896;20.874;2024-01-15T13:33:40;124.50;;;56.13;;
25381;SDS011;16307;42.896;20.874;2024-01-15T13:36:29;111.57;;;51.58;;
25381;SDS011;16307;42.896;20.874;2024-01-15T13:39:15;102.10;;;48.17;;
25381;SDS011;16307;42.896;20.874;2024-01-15T13:42:05;98.28;;;49.28;;
25381;SDS011;16307;42.896;20.874;2024-01-15T13:44:51;105.60;;;47.92;;
25381;SDS011;16307;42.896;20.874;2024-01-15T13:47:38;106.95;;;45.15;;
25381;SDS011;16307;42.896;20.874;2024-01-15T13:50:23;96.35;;;42.45;;
25381;SDS011;16307;42.896;20.874;2024-01-15T13:53:11;92.90;;;43.67;;
25381;SDS011;16307;42.896;20.874;2024-01-15T13:55:57;103.75;;;44.38;;
25381;SDS011;16307;42.896;20.874;2024-01-15T13:58:43;109.03;;;47.38;;
25381;SDS011;16307;42.896;20.874;2024-01-15T14:01:29;163.32;;;70.65;;
25381;SDS011;16307;42.896;20.874;2024-01-15T14:04:15;158.98;;;69.60;;
25381;SDS011;16307;42.896;20.874;2024-01-15T14:07:01;139.75;;;63.13;;
25381;SDS011;16307;42.896;20.874;2024-01-15T14:09:47;126.35;;;56.90;;
25381;SDS011;16307;42.896;20.874;2024-01-15T14:12:33;119.57;;;52.55;;
25381;SDS011;16307;42.896;20.874;2024-01-15T14:15:20;122.40;;;54.97;;
25381;SDS011;16307;42.896;20.874;2024-01-15T14:18:07;115.28;;;53.67;;
25381;SDS011;16307;42.896;20.874;2024-01-15T14:20:53;132.38;;;56.72;;
25381;SDS011;16307;42.896;20.874;2024-01-15T14:23:39;126.47;;;57.85;;
25381;SDS011;16307;42.896;20.874;2024-01-15T14:26:25;133.93;;;62.08;;
25381;SDS011;16307;42.896;20.874;2024-01-15T14:29:11;223.48;;;92.32;;
25381;SDS011;16307;42.896;20.874;2024-01-15T14:31:57;190.60;;;80.55;;
25381;SDS011;16307;42.896;20.874;2024-01-15T14:34:44;153.00;;;68.07;;
25381;SDS011;16307;42.896;20.874;2024-01-15T14:37:30;134.57;;;59.08;;
25381;SDS011;16307;42.896;20.874;2024-01-15T14:40:17;118.40;;;56.00;;
25381;SDS011;16307;42.896;20.874;2024-01-15T14:43:04;143.88;;;62.58;;
25381;SDS011;16307;42.896;20.874;2024-01-15T14:45:50;114.13;;;53.58;;
25381;SDS011;16307;42.896;20.874;2024-01-15T14:48:36;111.85;;;53.80;;
25381;SDS011;16307;42.896;20.874;2024-01-15T14:51:22;91.72;;;39.22;;
25381;SDS011;16307;42.896;20.874;2024-01-15T14:54:08;90.93;;;39.05;;
25381;SDS011;16307;42.896;20.874;2024-01-15T14:56:54;67.47;;;32.72;;
25381;SDS011;16307;42.896;20.874;2024-01-15T14:59:42;75.25;;;32.65;;
25381;SDS011;16307;42.896;20.874;2024-01-15T15:02:28;66.20;;;26.77;;
25381;SDS011;16307;42.896;20.874;2024-01-15T15:05:18;50.35;;;21.65;;
25381;SDS011;16307;42.896;20.874;2024-01-15T15:08:04;51.38;;;22.17;;
25381;SDS011;16307;42.896;20.874;2024-01-15T15:10:54;47.00;;;21.60;;
25381;SDS011;16307;42.896;20.874;2024-01-15T15:13:42;49.30;;;23.52;;
25381;SDS011;16307;42.896;20.874;2024-01-15T15:16:30;57.25;;;25.50;;
25381;SDS011;16307;42.896;20.874;2024-01-15T15:19:17;58.95;;;27.60;;
25381;SDS011;16307;42.896;20.874;2024-01-15T15:22:03;68.82;;;32.70;;
25381;SDS011;16307;42.896;20.874;2024-01-15T15:24:50;65.13;;;32.15;;
25381;SDS011;16307;42.896;20.874;2024-01-15T15:27:36;71.20;;;31.08;;
25381;SDS011;16307;42.896;20.874;2024-01-15T15:30:22;71.03;;;36.00;;
25381;SDS011;16307;42.896;20.874;2024-01-15T15:33:09;67.15;;;30.92;;
25381;SDS011;16307;42.896;20.874;2024-01-15T15:35:55;76.18;;;33.42;;
25381;SDS011;16307;42.896;20.874;2024-01-15T15:38:41;82.03;;;37.92;;
25381;SDS011;16307;42.896;20.874;2024-01-15T15:41:27;79.65;;;36.90;;
25381;SDS011;16307;42.896;20.874;2024-01-15T15:44:14;81.28;;;37.20;;
25381;SDS011;16307;42.896;20.874;2024-01-15T15:47:02;70.03;;;31.77;;
25381;SDS011;16307;42.896;20.874;2024-01-15T15:49:49;87.97;;;39.25;;
25381;SDS011;16307;42.896;20.874;2024-01-15T15:52:35;68.97;;;33.30;;
25381;SDS011;16307;42.896;20.874;2024-01-15T15:55:22;67.53;;;30.15;;
25381;SDS011;16307;42.896;20.874;2024-01-15T15:58:09;50.00;;;23.05;;
25381;SDS011;16307;42.896;20.874;2024-01-15T16:00:55;49.53;;;22.88;;
25381;SDS011;16307;42.896;20.874;2024-01-15T16:03:41;33.63;;;16.48;;
25381;SDS011;16307;42.896;20.874;2024-01-15T16:06:27;35.75;;;16.67;;
25381;SDS011;16307;42.896;20.874;2024-01-15T16:09:13;30.27;;;15.63;;
25381;SDS011;16307;42.896;20.874;2024-01-15T16:11:59;36.65;;;14.60;;
25381;SDS011;16307;42.896;20.874;2024-01-15T16:14:46;33.90;;;14.95;;
25381;SDS011;16307;42.896;20.874;2024-01-15T16:17:32;29.90;;;14.73;;
25381;SDS011;16307;42.896;20.874;2024-01-15T16:20:38;34.90;;;15.52;;
25381;SDS011;16307;42.896;20.874;2024-01-15T16:23:46;35.80;;;15.00;;
25381;SDS011;16307;42.896;20.874;2024-01-15T16:26:53;34.15;;;16.05;;
25381;SDS011;16307;42.896;20.874;2024-01-15T16:29:39;33.15;;;15.35;;
25381;SDS011;16307;42.896;20.874;2024-01-15T16:32:26;35.10;;;16.90;;
25381;SDS011;16307;42.896;20.874;2024-01-15T16:35:12;31.88;;;14.93;;
25381;SDS011;16307;42.896;20.874;2024-01-15T16:37:59;35.15;;;15.05;;
25381;SDS011;16307;42.896;20.874;2024-01-15T16:40:47;32.13;;;15.10;;
25381;SDS011;16307;42.896;20.874;2024-01-15T16:43:33;33.90;;;14.63;;
25381;SDS011;16307;42.896;20.874;2024-01-15T16:46:19;30.15;;;14.85;;
25381;SDS011;16307;42.896;20.874;2024-01-15T16:49:05;35.72;;;15.10;;